createdAt,value
2022-12-22T00:00:10.831Z,7.80
2022-12-22T00:02:59.341Z,7.80
2022-12-22T00:05:44.730Z,7.80
2022-12-22T00:08:30.225Z,7.90
2022-12-22T00:11:16.104Z,7.90
2022-12-22T00:14:02.767Z,7.90
2022-12-22T00:16:52.394Z,7.90
2022-12-22T00:19:37.825Z,7.90
2022-12-22T00:22:31.847Z,7.90
2022-12-22T00:25:17.347Z,7.90
2022-12-22T00:28:02.842Z,7.90
2022-12-22T00:30:48.109Z,7.90
2022-12-22T00:33:35.590Z,8.00
2022-12-22T00:36:21.584Z,8.00
2022-12-22T00:39:06.999Z,8.00
2022-12-22T00:41:52.380Z,8.10
2022-12-22T00:44:37.813Z,8.00
2022-12-22T00:47:23.403Z,8.10
2022-12-22T00:50:08.880Z,8.00
2022-12-22T00:52:54.360Z,8.00
2022-12-22T00:55:43.861Z,8.10
2022-12-22T00:58:33.142Z,8.10
2022-12-22T01:01:18.348Z,8.10
2022-12-22T01:04:03.859Z,8.10
2022-12-22T01:06:50.315Z,8.10
2022-12-22T01:09:36.243Z,8.10
2022-12-22T01:12:22.886Z,8.10
2022-12-22T01:15:08.266Z,8.10
2022-12-22T01:17:53.493Z,8.20
2022-12-22T01:20:39.010Z,8.10
2022-12-22T01:23:27.432Z,8.20
2022-12-22T01:26:13.006Z,8.20
2022-12-22T01:28:58.572Z,8.20
2022-12-22T01:31:47.670Z,8.20
2022-12-22T01:34:33.136Z,8.20
2022-12-22T01:37:18.658Z,8.20
2022-12-22T01:40:04.063Z,8.20
2022-12-22T01:42:51.477Z,8.20
2022-12-22T01:45:40.057Z,8.20
2022-12-22T01:48:29.743Z,8.20
2022-12-22T01:51:15.199Z,8.20
2022-12-22T01:54:00.871Z,8.20
2022-12-22T01:56:45.917Z,8.10
2022-12-22T01:59:31.707Z,8.20
2022-12-22T02:02:17.827Z,8.10
2022-12-22T02:05:05.503Z,8.10
2022-12-22T02:07:50.997Z,8.10
2022-12-22T02:10:42.599Z,8.10
2022-12-22T02:13:37.374Z,8.10
2022-12-22T02:16:43.219Z,8.10
2022-12-22T02:19:44.154Z,8.10
2022-12-22T02:22:48.328Z,8.20
2022-12-22T02:25:41.975Z,8.10
2022-12-22T02:28:27.954Z,8.20
2022-12-22T02:31:13.406Z,8.20
2022-12-22T02:33:59.041Z,8.20
2022-12-22T02:36:51.155Z,8.20
2022-12-22T02:39:49.833Z,8.20
2022-12-22T02:42:41.862Z,8.30
2022-12-22T02:45:39.369Z,8.30
2022-12-22T02:48:43.936Z,8.20
2022-12-22T02:51:32.971Z,8.30
2022-12-22T02:54:18.276Z,8.30
2022-12-22T02:57:05.893Z,8.30
2022-12-22T02:59:51.355Z,8.30
2022-12-22T03:02:37.093Z,8.30
2022-12-22T03:05:22.815Z,8.30
2022-12-22T03:08:08.821Z,8.30
2022-12-22T03:10:54.386Z,8.40
2022-12-22T03:13:40.196Z,8.40
2022-12-22T03:16:25.806Z,8.40
2022-12-22T03:19:11.299Z,8.40
2022-12-22T03:21:56.773Z,8.40
2022-12-22T03:24:42.126Z,8.40
2022-12-22T03:27:08.983Z,8.40
2022-12-22T03:29:35.699Z,8.30
2022-12-22T03:32:02.614Z,8.30
2022-12-22T03:34:29.393Z,8.30
2022-12-22T03:36:56.151Z,8.30
2022-12-22T03:39:22.890Z,8.30
2022-12-22T03:42:08.304Z,8.20
2022-12-22T03:44:53.759Z,8.30
2022-12-22T03:47:20.526Z,8.30
2022-12-22T03:49:47.273Z,8.30
2022-12-22T03:52:14.057Z,8.30
2022-12-22T03:54:40.790Z,8.30
2022-12-22T03:57:07.541Z,8.30
2022-12-22T03:59:34.327Z,8.30
2022-12-22T04:02:01.190Z,8.30
2022-12-22T04:04:28.241Z,8.30
2022-12-22T04:06:55.357Z,8.30
2022-12-22T04:09:22.775Z,8.30
2022-12-22T04:12:08.140Z,8.30
2022-12-22T04:14:35.216Z,8.20
2022-12-22T04:17:02.771Z,8.20
2022-12-22T04:19:29.807Z,8.20
2022-12-22T04:21:56.628Z,8.20
2022-12-22T04:24:23.757Z,8.20
2022-12-22T04:26:50.950Z,8.20
2022-12-22T04:29:17.731Z,8.10
2022-12-22T04:31:44.754Z,8.10
2022-12-22T04:34:11.503Z,8.00
2022-12-22T04:36:38.222Z,8.00
2022-12-22T04:39:04.989Z,8.00
2022-12-22T04:41:31.804Z,7.90
2022-12-22T04:43:58.558Z,7.90
2022-12-22T04:46:25.452Z,7.90
2022-12-22T04:48:57.827Z,7.90
2022-12-22T04:51:27.034Z,7.90
2022-12-22T04:53:53.743Z,7.90
2022-12-22T04:56:20.472Z,7.90
2022-12-22T04:58:47.267Z,8.00
2022-12-22T05:01:15.801Z,7.90
2022-12-22T05:03:42.747Z,7.90
2022-12-22T05:06:10.114Z,8.00
2022-12-22T05:08:37.192Z,8.00
2022-12-22T05:11:04.039Z,7.90
2022-12-22T05:13:31.676Z,7.90
2022-12-22T05:16:05.197Z,7.80
2022-12-22T05:18:32.542Z,7.70
2022-12-22T05:21:01.763Z,7.70
2022-12-22T05:23:28.499Z,7.60
2022-12-22T05:25:55.297Z,7.60
2022-12-22T05:28:22.048Z,7.60
2022-12-22T05:30:48.864Z,7.70
2022-12-22T05:33:15.941Z,7.70
2022-12-22T05:35:42.639Z,7.80
2022-12-22T05:38:09.381Z,7.80
2022-12-22T05:40:36.163Z,7.80
2022-12-22T05:43:02.991Z,7.80
2022-12-22T05:45:29.699Z,7.80
2022-12-22T05:47:56.509Z,7.80
2022-12-22T05:50:24.372Z,7.80
2022-12-22T05:53:04.416Z,7.80
2022-12-22T05:55:31.171Z,7.80
2022-12-22T05:58:01.739Z,7.80
2022-12-22T06:00:30.388Z,7.80
2022-12-22T06:02:57.234Z,7.90
2022-12-22T06:05:24.074Z,7.90
2022-12-22T06:07:50.850Z,7.90
2022-12-22T06:10:17.653Z,7.90
2022-12-22T06:12:44.359Z,7.80
2022-12-22T06:15:12.021Z,7.80
2022-12-22T06:17:44.391Z,7.80
2022-12-22T06:20:12.729Z,7.90
2022-12-22T06:22:39.472Z,7.80
2022-12-22T06:25:06.341Z,7.90
2022-12-22T06:27:33.134Z,7.90
2022-12-22T06:29:59.889Z,7.90
2022-12-22T06:32:26.620Z,7.90
2022-12-22T06:34:53.354Z,8.00
2022-12-22T06:37:20.090Z,8.00
2022-12-22T06:39:46.807Z,8.00
2022-12-22T06:42:32.439Z,8.10
2022-12-22T06:44:59.190Z,8.00
2022-12-22T06:47:25.924Z,8.10
2022-12-22T06:49:52.810Z,8.00
2022-12-22T06:52:19.508Z,8.00
2022-12-22T06:54:46.299Z,8.00
2022-12-22T06:57:13.126Z,8.00
2022-12-22T06:59:39.840Z,8.00
2022-12-22T07:02:06.979Z,8.10
2022-12-22T07:04:33.948Z,8.10
2022-12-22T07:07:00.675Z,8.10
2022-12-22T07:09:27.495Z,8.10
2022-12-22T07:11:54.265Z,8.10
2022-12-22T07:14:21.241Z,8.10
2022-12-22T07:16:48.149Z,8.10
2022-12-22T07:19:14.967Z,8.10
2022-12-22T07:21:41.722Z,8.10
2022-12-22T07:24:08.627Z,8.10
2022-12-22T07:26:35.468Z,8.20
2022-12-22T07:29:02.248Z,8.20
2022-12-22T07:31:28.988Z,8.20
2022-12-22T07:33:55.852Z,8.20
2022-12-22T07:36:22.690Z,8.20
2022-12-22T07:38:50.502Z,8.20
2022-12-22T07:41:37.622Z,8.20
2022-12-22T07:44:06.684Z,8.20
2022-12-22T07:46:37.745Z,8.20
2022-12-22T07:49:24.039Z,8.10
2022-12-22T07:51:50.984Z,8.10
2022-12-22T07:54:18.047Z,8.10
2022-12-22T07:56:45.556Z,8.10
2022-12-22T07:59:12.776Z,8.10
2022-12-22T08:01:41.619Z,8.10
2022-12-22T08:04:09.121Z,8.10
2022-12-22T08:06:36.178Z,8.10
2022-12-22T08:09:03.607Z,8.10
2022-12-22T08:11:30.550Z,8.10
2022-12-22T08:14:01.308Z,8.10
2022-12-22T08:16:29.215Z,8.20
2022-12-22T08:18:56.379Z,8.20
2022-12-22T08:21:23.313Z,8.00
2022-12-22T08:23:50.189Z,8.00
2022-12-22T08:26:19.717Z,7.90
2022-12-22T08:28:54.862Z,7.80
2022-12-22T08:31:22.737Z,7.80
2022-12-22T08:33:49.645Z,7.80
2022-12-22T08:36:16.652Z,7.80
2022-12-22T08:38:43.760Z,7.90
2022-12-22T08:41:10.820Z,7.90
2022-12-22T08:43:37.519Z,7.90
2022-12-22T08:46:04.341Z,7.90
2022-12-22T08:48:31.230Z,7.80
2022-12-22T08:50:58.036Z,7.80
2022-12-22T08:54:02.419Z,7.80
2022-12-22T08:56:11.508Z,7.80
2022-12-22T08:58:40.144Z,7.90
2022-12-22T09:01:07.007Z,7.90
2022-12-22T09:03:33.942Z,7.80
2022-12-22T09:06:01.339Z,7.90
2022-12-22T09:08:28.113Z,7.90
2022-12-22T09:10:54.929Z,8.00
2022-12-22T09:13:21.692Z,8.00
2022-12-22T09:15:48.410Z,8.00
2022-12-22T09:18:15.163Z,8.00
2022-12-22T09:20:41.840Z,8.00
2022-12-22T09:23:08.625Z,8.10
2022-12-22T09:25:35.415Z,8.10
2022-12-22T09:28:02.196Z,8.10
2022-12-22T09:30:28.915Z,8.20
2022-12-22T09:32:55.613Z,8.30
2022-12-22T09:35:22.327Z,8.30
2022-12-22T09:37:49.325Z,8.40
2022-12-22T09:40:16.055Z,8.40
2022-12-22T09:42:42.897Z,8.40
2022-12-22T09:45:25.773Z,8.40
2022-12-22T09:47:53.910Z,8.40
2022-12-22T09:50:23.508Z,8.40
2022-12-22T09:52:58.836Z,8.50
2022-12-22T09:55:25.541Z,8.40
2022-12-22T09:57:55.661Z,8.50
2022-12-22T10:00:24.928Z,8.60
2022-12-22T10:03:05.494Z,8.70
2022-12-22T10:05:38.637Z,8.70
2022-12-22T10:08:10.434Z,8.70
2022-12-22T10:10:37.162Z,8.80
2022-12-22T10:13:05.123Z,8.80
2022-12-22T10:15:41.026Z,8.80
2022-12-22T10:18:27.548Z,8.90
2022-12-22T10:21:14.238Z,8.90
2022-12-22T10:23:45.344Z,8.90
2022-12-22T10:26:27.989Z,8.90
2022-12-22T10:28:59.724Z,8.90
2022-12-22T10:31:28.554Z,8.90
2022-12-22T10:33:56.698Z,8.90
2022-12-22T10:36:28.062Z,8.90
2022-12-22T10:38:58.009Z,8.90
2022-12-22T10:41:26.036Z,8.90
2022-12-22T10:44:19.384Z,8.90
2022-12-22T10:46:50.279Z,9.00
2022-12-22T10:49:19.265Z,8.90
2022-12-22T10:51:48.250Z,8.90
2022-12-22T10:54:29.446Z,8.90
2022-12-22T10:57:02.749Z,8.90
2022-12-22T10:59:29.607Z,8.90
2022-12-22T11:02:16.362Z,8.80
2022-12-22T11:04:43.267Z,8.80
2022-12-22T11:07:10.115Z,8.90
2022-12-22T11:09:36.828Z,8.90
2022-12-22T11:12:07.862Z,8.90
2022-12-22T11:14:34.750Z,8.90
2022-12-22T11:17:04.602Z,8.90
2022-12-22T11:19:48.870Z,8.90
2022-12-22T11:22:28.552Z,8.90
2022-12-22T11:25:02.631Z,9.00
2022-12-22T11:27:32.391Z,9.10
2022-12-22T11:30:05.355Z,9.10
2022-12-22T11:32:55.491Z,9.10
2022-12-22T11:35:41.043Z,9.10
2022-12-22T11:38:26.291Z,9.20
2022-12-22T11:41:19.568Z,9.20
2022-12-22T11:43:56.799Z,9.30
2022-12-22T11:46:26.727Z,9.40
2022-12-22T11:48:59.409Z,9.40
2022-12-22T11:51:44.537Z,9.40
2022-12-22T11:54:14.381Z,9.40
2022-12-22T11:56:42.850Z,9.40
2022-12-22T11:59:12.743Z,9.50
2022-12-22T12:01:58.341Z,9.40
2022-12-22T12:04:42.722Z,9.30
2022-12-22T12:07:12.484Z,9.40
2022-12-22T12:09:42.196Z,9.50
2022-12-22T12:12:15.575Z,9.60
2022-12-22T12:14:49.965Z,9.50
2022-12-22T12:17:16.754Z,9.50
2022-12-22T12:19:44.335Z,9.50
2022-12-22T12:22:19.047Z,9.50
2022-12-22T12:24:54.932Z,9.50
2022-12-22T12:27:37.519Z,9.70
2022-12-22T12:30:37.668Z,9.80
2022-12-22T12:33:11.575Z,9.80
2022-12-22T12:35:44.872Z,9.80
2022-12-22T12:39:05.206Z,9.70
2022-12-22T12:41:29.250Z,9.70
2022-12-22T12:43:56.384Z,9.60
2022-12-22T12:46:49.521Z,9.50
2022-12-22T12:49:34.585Z,9.50
2022-12-22T12:52:04.347Z,9.50
2022-12-22T12:54:47.540Z,9.30
2022-12-22T12:57:23.568Z,9.30
2022-12-22T12:59:51.166Z,9.10
2022-12-22T13:02:27.077Z,9.00
2022-12-22T13:05:12.278Z,9.00
2022-12-22T13:07:58.037Z,9.10
2022-12-22T13:10:25.310Z,9.40
2022-12-22T13:12:53.462Z,9.60
2022-12-22T13:15:36.843Z,9.70
2022-12-22T13:18:04.641Z,9.70
2022-12-22T13:20:35.774Z,9.80
2022-12-22T13:23:04.106Z,9.90
2022-12-22T13:26:00.315Z,10.00
2022-12-22T13:28:27.577Z,9.90
2022-12-22T13:31:00.485Z,10.10
2022-12-22T13:33:29.720Z,9.90
2022-12-22T13:35:59.370Z,9.50
2022-12-22T13:38:26.229Z,9.30
2022-12-22T13:40:53.034Z,9.40
2022-12-22T13:43:20.407Z,9.50
2022-12-22T13:45:51.708Z,9.70
2022-12-22T13:48:24.435Z,9.60
2022-12-22T13:50:56.568Z,9.30
2022-12-22T13:56:37.836Z,9.20
2022-12-22T13:59:04.840Z,9.40
2022-12-22T14:01:31.797Z,9.60
2022-12-22T14:04:03.098Z,9.60
2022-12-22T14:06:31.645Z,9.70
2022-12-22T14:09:19.399Z,9.70
2022-12-22T14:12:06.520Z,9.70
2022-12-22T14:14:38.110Z,9.60
2022-12-22T14:17:05.175Z,9.30
2022-12-22T14:19:32.971Z,9.20
2022-12-22T14:22:04.781Z,9.30
2022-12-22T14:24:38.042Z,9.20
2022-12-22T14:27:06.467Z,9.20
2022-12-22T14:29:33.289Z,9.10
2022-12-22T14:32:02.005Z,9.00
2022-12-22T14:34:31.028Z,8.90
2022-12-22T14:37:01.234Z,8.70
2022-12-22T14:39:32.457Z,8.60
2022-12-22T14:42:00.981Z,8.50
2022-12-22T14:44:27.715Z,8.40
2022-12-22T14:47:03.453Z,8.20
2022-12-22T14:49:30.391Z,8.10
2022-12-22T14:52:01.536Z,8.00
2022-12-22T14:54:28.412Z,7.90
2022-12-22T14:56:58.896Z,7.80
2022-12-22T14:59:26.865Z,7.80
2022-12-22T15:02:01.403Z,7.70
2022-12-22T15:04:29.027Z,7.70
2022-12-22T15:07:06.390Z,7.60
2022-12-22T15:10:12.950Z,7.50
2022-12-22T15:12:20.021Z,7.50
2022-12-22T15:14:48.813Z,7.60
2022-12-22T15:17:25.879Z,7.50
2022-12-22T15:19:57.629Z,7.50
2022-12-22T15:22:24.995Z,7.40
2022-12-22T15:24:52.184Z,7.40
2022-12-22T15:27:18.948Z,7.30
2022-12-22T15:29:45.677Z,7.40
2022-12-22T15:32:13.147Z,7.20
2022-12-22T15:34:39.885Z,7.10
2022-12-22T15:37:06.621Z,7.10
2022-12-22T15:39:33.438Z,7.00
2022-12-22T15:42:00.224Z,7.00
2022-12-22T15:44:26.929Z,7.00
2022-12-22T15:46:57.440Z,6.90
2022-12-22T15:49:29.008Z,7.00
2022-12-22T15:51:57.403Z,6.90
2022-12-22T15:54:25.496Z,6.90
2022-12-22T15:56:52.767Z,7.00
2022-12-22T15:59:21.107Z,6.90
2022-12-22T16:01:55.003Z,6.90
2022-12-22T16:04:28.151Z,6.90
2022-12-22T16:06:55.047Z,6.90
2022-12-22T16:09:23.081Z,6.80
2022-12-22T16:11:50.082Z,6.80
2022-12-22T16:14:17.796Z,6.70
2022-12-22T16:16:44.551Z,6.70
2022-12-22T16:19:15.577Z,6.70
2022-12-22T16:21:43.165Z,6.60
2022-12-22T16:24:19.570Z,6.60
2022-12-22T16:26:46.355Z,6.60
2022-12-22T16:29:15.288Z,6.60
2022-12-22T16:31:42.179Z,6.50
2022-12-22T16:34:12.085Z,6.50
2022-12-22T16:36:38.851Z,6.40
2022-12-22T16:39:05.754Z,6.40
2022-12-22T16:41:32.548Z,6.30
2022-12-22T16:44:05.595Z,6.30
2022-12-22T16:46:34.917Z,6.40
2022-12-22T16:49:01.747Z,6.30
2022-12-22T16:51:29.650Z,6.40
2022-12-22T16:53:56.666Z,6.30
2022-12-22T16:56:26.716Z,6.30
2022-12-22T16:58:53.568Z,6.40
2022-12-22T17:01:31.952Z,6.40
2022-12-22T17:04:02.008Z,6.30
2022-12-22T17:06:28.897Z,6.30
2022-12-22T17:08:55.700Z,6.20
2022-12-22T17:11:23.698Z,6.30
2022-12-22T17:13:52.635Z,6.30
2022-12-22T17:16:20.560Z,6.40
2022-12-22T17:18:47.914Z,6.40
2022-12-22T17:21:16.308Z,6.40
2022-12-22T17:23:44.503Z,6.50
2022-12-22T17:26:13.781Z,6.50
2022-12-22T17:28:41.735Z,6.50
2022-12-22T17:31:13.925Z,6.50
2022-12-22T17:33:41.680Z,6.60
2022-12-22T17:36:27.349Z,6.60
2022-12-22T17:38:54.351Z,6.60
2022-12-22T17:41:21.110Z,6.60
2022-12-22T17:43:47.801Z,6.70
2022-12-22T17:46:16.151Z,6.70
2022-12-22T17:48:43.449Z,6.70
2022-12-22T17:51:15.492Z,6.80
2022-12-22T17:53:42.371Z,6.80
2022-12-22T17:56:13.253Z,6.80
2022-12-22T17:58:40.596Z,6.80
2022-12-22T18:01:09.934Z,6.90
2022-12-22T18:03:36.819Z,6.90
2022-12-22T18:06:03.788Z,7.00
2022-12-22T18:08:30.727Z,7.00
2022-12-22T18:10:57.534Z,7.10
2022-12-22T18:13:27.084Z,7.10
2022-12-22T18:15:55.933Z,7.10
2022-12-22T18:18:22.959Z,7.10
2022-12-22T18:21:07.433Z,7.20
2022-12-22T18:23:36.847Z,7.10
2022-12-22T18:26:04.673Z,7.10
2022-12-22T18:28:31.433Z,7.10
2022-12-22T18:30:58.194Z,7.10
2022-12-22T18:33:24.945Z,7.00
2022-12-22T18:35:51.720Z,7.10
2022-12-22T18:38:24.686Z,7.00
2022-12-22T18:40:51.528Z,7.00
2022-12-22T18:43:18.249Z,7.00
2022-12-22T18:45:45.134Z,7.00
2022-12-22T18:48:11.823Z,7.00
2022-12-22T18:50:39.280Z,7.00
2022-12-22T18:53:29.154Z,7.10
2022-12-22T18:55:56.382Z,7.00
2022-12-22T18:58:23.863Z,7.00
2022-12-22T19:00:51.134Z,7.00
2022-12-22T19:03:22.385Z,7.00
2022-12-22T19:05:49.664Z,7.00
2022-12-22T19:08:21.036Z,7.10
2022-12-22T19:10:49.820Z,7.10
2022-12-22T19:13:19.115Z,7.20
2022-12-22T19:15:46.893Z,7.20
2022-12-22T19:18:16.704Z,7.20
2022-12-22T19:20:45.488Z,7.20
2022-12-22T19:23:13.970Z,7.20
2022-12-22T19:25:41.481Z,7.30
2022-12-22T19:28:14.449Z,7.20
2022-12-22T19:30:41.168Z,7.20
2022-12-22T19:33:10.699Z,7.20
2022-12-22T19:35:37.579Z,7.30
2022-12-22T19:38:13.427Z,7.20
2022-12-22T19:40:40.182Z,7.20
2022-12-22T19:43:08.998Z,7.20
2022-12-22T19:45:35.977Z,7.20
2022-12-22T19:48:03.717Z,7.10
2022-12-22T19:50:31.282Z,7.10
2022-12-22T19:52:59.265Z,7.20
2022-12-22T19:55:27.935Z,7.20
2022-12-22T19:57:55.010Z,7.20
2022-12-22T20:00:23.371Z,7.30
2022-12-22T20:02:51.721Z,7.30
2022-12-22T20:05:24.837Z,7.30
2022-12-22T20:07:52.373Z,7.30
2022-12-22T20:10:19.341Z,7.20
2022-12-22T20:12:46.956Z,7.20
2022-12-22T20:15:13.710Z,7.20
2022-12-22T20:17:40.433Z,7.20
2022-12-22T20:20:13.362Z,7.20
2022-12-22T20:22:42.409Z,7.20
2022-12-22T20:25:13.465Z,7.20
2022-12-22T20:27:40.170Z,7.20
2022-12-22T20:30:07.586Z,7.20
2022-12-22T20:32:34.388Z,7.20
2022-12-22T20:35:01.179Z,7.30
2022-12-22T20:37:28.347Z,7.20
2022-12-22T20:39:55.121Z,7.20
2022-12-22T20:42:22.834Z,7.20
2022-12-22T20:45:02.317Z,7.20
2022-12-22T20:47:32.364Z,7.30
2022-12-22T20:49:59.187Z,7.30
2022-12-22T20:52:25.947Z,7.30
2022-12-22T20:54:52.671Z,7.40
2022-12-22T20:57:20.224Z,7.40
2022-12-22T20:59:53.871Z,7.40
2022-12-22T21:02:25.083Z,7.40
2022-12-22T21:04:52.304Z,7.40
2022-12-22T21:07:19.035Z,7.40
2022-12-22T21:09:45.910Z,7.40
2022-12-22T21:12:13.565Z,7.50
2022-12-22T21:14:40.337Z,7.50
2022-12-22T21:17:13.742Z,7.50
2022-12-22T21:19:40.585Z,7.50
2022-12-22T21:22:07.284Z,7.50
2022-12-22T21:24:34.066Z,7.60
2022-12-22T21:27:00.885Z,7.60
2022-12-22T21:29:27.652Z,7.70
2022-12-22T21:31:54.786Z,7.70
2022-12-22T21:34:21.793Z,7.70
2022-12-22T21:36:49.849Z,7.70
2022-12-22T21:39:28.786Z,7.70
2022-12-22T21:42:03.122Z,7.70
2022-12-22T21:44:30.957Z,7.70
2022-12-22T21:46:58.143Z,7.70
2022-12-22T21:49:26.205Z,7.80
2022-12-22T21:51:53.719Z,7.90
2022-12-22T21:54:21.034Z,7.90
2022-12-22T21:56:47.826Z,7.90
2022-12-22T21:59:14.986Z,8.00
2022-12-22T22:01:42.337Z,8.00
2022-12-22T22:04:09.309Z,8.10
2022-12-22T22:06:36.063Z,8.10
2022-12-22T22:09:05.078Z,8.20
2022-12-22T22:11:31.910Z,8.20
2022-12-22T22:13:58.698Z,8.20
2022-12-22T22:16:25.535Z,8.20
2022-12-22T22:18:52.378Z,8.20
2022-12-22T22:21:19.099Z,8.30
2022-12-22T22:23:45.782Z,8.30
2022-12-22T22:26:12.522Z,8.30
2022-12-22T22:28:39.218Z,8.30
2022-12-22T22:31:10.252Z,8.40
2022-12-22T22:33:37.181Z,8.40
2022-12-22T22:36:06.004Z,8.40
2022-12-22T22:38:33.064Z,8.40
2022-12-22T22:40:59.803Z,8.40
2022-12-22T22:43:26.614Z,8.50
2022-12-22T22:45:53.475Z,8.40
2022-12-22T22:48:21.778Z,8.50
2022-12-22T22:50:48.847Z,8.50
2022-12-22T22:53:15.627Z,8.50
2022-12-22T22:55:42.484Z,8.50
2022-12-22T22:58:11.474Z,8.50
2022-12-22T23:00:38.686Z,8.50
2022-12-22T23:03:05.700Z,8.50
2022-12-22T23:05:32.889Z,8.50
2022-12-22T23:07:59.637Z,8.50
2022-12-22T23:10:26.444Z,8.50
2022-12-22T23:12:53.172Z,8.60
2022-12-22T23:15:19.881Z,8.60
2022-12-22T23:17:46.645Z,8.60
2022-12-22T23:20:13.422Z,8.60
2022-12-22T23:22:40.106Z,8.70
2022-12-22T23:25:08.001Z,8.70
2022-12-22T23:27:34.830Z,8.70
2022-12-22T23:30:01.530Z,8.80
2022-12-22T23:32:28.294Z,8.90
2022-12-22T23:34:55.010Z,8.90
2022-12-22T23:37:21.744Z,8.90
2022-12-22T23:39:48.511Z,9.00
2022-12-22T23:42:15.289Z,9.00
2022-12-22T23:44:41.966Z,9.00
2022-12-22T23:47:08.772Z,9.10
2022-12-22T23:49:35.577Z,9.10
2022-12-22T23:52:02.331Z,9.10
2022-12-22T23:54:30.515Z,9.10
2022-12-22T23:56:57.368Z,9.10
2022-12-22T23:59:24.224Z,9.20
